createdAt,value
2023-02-15T00:01:47.041Z,103011.50
2023-02-15T00:04:16.962Z,103001.97
2023-02-15T00:06:45.102Z,103001.34
2023-02-15T00:09:14.361Z,102995.16
2023-02-15T00:11:43.799Z,102985.06
2023-02-15T00:14:14.473Z,102974.78
2023-02-15T00:16:44.607Z,102989.88
2023-02-15T00:19:15.201Z,102987.91
2023-02-15T00:21:43.641Z,102976.88
2023-02-15T00:24:14.024Z,102993.13
2023-02-15T00:26:43.709Z,102977.78
2023-02-15T00:29:13.771Z,102967.25
2023-02-15T00:31:42.002Z,102956.28
2023-02-15T00:34:16.402Z,102979.56
2023-02-15T00:36:45.673Z,102980.09
2023-02-15T00:39:14.901Z,102976.25
2023-02-15T00:41:43.500Z,102966.91
2023-02-15T00:44:12.729Z,102965.16
2023-02-15T00:46:41.194Z,102972.91
2023-02-15T00:49:09.826Z,102972.28
2023-02-15T00:51:40.761Z,102979.19
2023-02-15T00:54:09.021Z,102965.75
2023-02-15T00:56:37.487Z,102969.88
2023-02-15T00:59:05.840Z,102960.53
2023-02-15T01:01:34.056Z,102926.38
2023-02-15T01:04:02.291Z,102954.06
2023-02-15T01:06:30.818Z,102958.69
2023-02-15T01:09:00.777Z,102939.41
2023-02-15T01:11:29.025Z,102835.09
2023-02-15T01:14:00.007Z,102939.06
2023-02-15T01:16:30.427Z,102939.41
2023-02-15T01:18:59.482Z,102942.09
2023-02-15T01:21:28.919Z,102933.28
2023-02-15T01:23:57.147Z,102939.38
2023-02-15T01:26:27.033Z,102925.00
2023-02-15T01:28:55.279Z,102930.88
2023-02-15T01:31:23.633Z,102918.09
2023-02-15T01:33:52.090Z,102923.47
2023-02-15T01:36:20.866Z,102915.22
2023-02-15T01:38:50.383Z,102874.19
2023-02-15T01:41:25.305Z,102910.28
2023-02-15T01:43:57.333Z,102902.69
2023-02-15T01:46:30.174Z,102902.19
2023-02-15T01:49:04.968Z,102896.09
2023-02-15T01:51:37.447Z,102899.66
2023-02-15T01:54:12.093Z,102900.97
2023-02-15T01:56:42.904Z,102870.22
2023-02-15T01:59:21.529Z,102891.09
2023-02-15T02:01:51.178Z,102877.88
2023-02-15T02:04:25.561Z,102875.22
2023-02-15T02:06:55.548Z,102900.69
2023-02-15T02:09:24.038Z,102878.81
2023-02-15T02:11:52.809Z,102845.44
2023-02-15T02:14:23.652Z,102858.28
2023-02-15T02:16:59.035Z,102855.19
2023-02-15T02:19:56.831Z,102877.06
2023-02-15T02:22:54.555Z,102867.97
2023-02-15T02:26:02.670Z,102862.09
2023-02-15T02:28:48.710Z,102854.16
2023-02-15T02:31:41.978Z,102848.00
2023-02-15T02:34:18.896Z,102850.84
2023-02-15T02:36:55.132Z,102855.97
2023-02-15T02:39:33.291Z,102841.38
2023-02-15T02:42:08.989Z,102858.00
2023-02-15T02:44:45.166Z,102853.03
2023-02-15T02:47:21.143Z,102809.59
2023-02-15T02:49:55.527Z,102825.94
2023-02-15T02:52:44.772Z,102837.94
2023-02-15T02:55:18.532Z,102827.09
2023-02-15T02:57:54.146Z,102825.44
2023-02-15T03:00:24.139Z,102810.88
2023-02-15T03:02:59.669Z,102813.69
2023-02-15T03:05:31.406Z,102820.06
2023-02-15T03:08:02.302Z,102815.09
2023-02-15T03:10:31.800Z,102808.31
2023-02-15T03:13:00.381Z,102804.50
2023-02-15T03:15:52.827Z,102810.09
2023-02-15T03:18:25.055Z,102809.13
2023-02-15T03:20:57.716Z,102817.00
2023-02-15T03:23:30.070Z,102784.78
2023-02-15T03:26:02.000Z,102793.72
2023-02-15T03:28:35.854Z,102812.00
2023-02-15T03:31:07.005Z,102801.56
2023-02-15T03:33:37.340Z,102795.41
2023-02-15T03:36:13.980Z,102776.25
2023-02-15T03:38:50.057Z,102786.84
2023-02-15T03:41:20.785Z,102789.81
2023-02-15T03:43:54.375Z,102787.41
2023-02-15T03:46:29.000Z,102779.59
2023-02-15T03:49:02.616Z,102771.13
2023-02-15T03:51:39.174Z,102769.75
2023-02-15T03:54:10.332Z,102776.13
2023-02-15T03:56:41.212Z,102764.91
2023-02-15T03:59:27.164Z,102774.81
2023-02-15T04:02:08.999Z,102773.25
2023-02-15T04:04:39.462Z,102771.22
2023-02-15T04:07:11.182Z,102776.00
2023-02-15T04:09:56.845Z,102760.53
2023-02-15T04:12:25.288Z,102760.69
2023-02-15T04:15:10.727Z,102769.34
2023-02-15T04:17:39.562Z,102772.69
2023-02-15T04:20:26.904Z,102758.13
2023-02-15T04:23:14.305Z,102772.28
2023-02-15T04:25:42.506Z,102755.16
2023-02-15T04:28:10.694Z,102738.69
2023-02-15T04:30:38.881Z,102758.69
2023-02-15T04:33:07.133Z,102740.38
2023-02-15T04:35:36.427Z,102752.88
2023-02-15T04:38:06.102Z,102756.34
2023-02-15T04:40:34.388Z,102744.44
2023-02-15T04:43:02.643Z,102742.78
2023-02-15T04:45:31.089Z,102739.94
2023-02-15T04:47:59.512Z,102735.50
2023-02-15T04:50:27.694Z,102727.91
2023-02-15T04:52:55.942Z,102742.19
2023-02-15T04:55:25.636Z,102728.97
2023-02-15T04:57:53.918Z,102735.16
2023-02-15T05:00:22.487Z,102738.13
2023-02-15T05:02:50.588Z,102715.75
2023-02-15T05:05:19.174Z,102721.84
2023-02-15T05:07:47.611Z,102707.00
2023-02-15T05:10:16.066Z,102711.59
2023-02-15T05:12:45.778Z,102710.97
2023-02-15T05:15:14.727Z,102716.22
2023-02-15T05:17:42.879Z,102709.31
2023-02-15T05:20:12.519Z,102697.41
2023-02-15T05:22:41.906Z,102711.09
2023-02-15T05:25:28.882Z,102707.28
2023-02-15T05:28:16.083Z,102710.28
2023-02-15T05:30:44.396Z,102706.13
2023-02-15T05:33:13.162Z,102704.44
2023-02-15T05:35:41.761Z,102707.53
2023-02-15T05:38:10.162Z,102710.28
2023-02-15T05:40:38.401Z,102696.94
2023-02-15T05:43:08.161Z,102708.78
2023-02-15T05:45:36.375Z,102714.66
2023-02-15T05:48:04.883Z,102689.25
2023-02-15T05:50:33.486Z,102696.50
2023-02-15T05:53:01.653Z,102690.16
2023-02-15T05:55:30.171Z,102693.25
2023-02-15T05:57:59.280Z,102698.16
2023-02-15T06:00:28.854Z,102690.72
2023-02-15T06:02:56.978Z,102686.25
2023-02-15T06:05:26.841Z,102694.28
2023-02-15T06:07:55.303Z,102687.69
2023-02-15T06:10:23.837Z,102687.66
2023-02-15T06:12:52.068Z,102686.31
2023-02-15T06:15:20.439Z,102661.25
2023-02-15T06:17:50.127Z,102688.28
2023-02-15T06:20:18.775Z,102679.97
2023-02-15T06:22:46.855Z,102668.47
2023-02-15T06:25:15.189Z,102675.72
2023-02-15T06:27:44.887Z,102673.47
2023-02-15T06:30:14.537Z,102664.56
2023-02-15T06:32:48.074Z,102671.81
2023-02-15T06:35:18.010Z,102676.06
2023-02-15T06:37:48.145Z,102666.88
2023-02-15T06:40:16.630Z,102660.38
2023-02-15T06:42:45.162Z,102666.88
2023-02-15T06:45:13.930Z,102671.97
2023-02-15T06:47:42.112Z,102663.56
2023-02-15T06:50:11.403Z,102658.44
2023-02-15T06:52:41.111Z,102663.94
2023-02-15T06:55:09.687Z,102671.19
2023-02-15T06:57:38.085Z,102671.16
2023-02-15T07:00:08.038Z,102672.22
2023-02-15T07:02:36.603Z,102645.13
2023-02-15T07:05:06.278Z,102668.16
2023-02-15T07:07:34.632Z,102674.78
2023-02-15T07:10:04.545Z,102656.59
2023-02-15T07:12:45.669Z,102661.13
2023-02-15T07:15:19.347Z,102648.50
2023-02-15T07:17:47.594Z,102650.66
2023-02-15T07:20:20.931Z,102656.78
2023-02-15T07:22:50.933Z,102644.72
2023-02-15T07:25:21.062Z,102663.03
2023-02-15T07:27:50.365Z,102661.44
2023-02-15T07:30:20.019Z,102664.38
2023-02-15T07:33:17.508Z,102664.47
2023-02-15T07:35:50.757Z,102657.44
2023-02-15T07:38:19.671Z,102662.53
2023-02-15T07:40:49.975Z,102657.56
2023-02-15T07:43:24.514Z,102661.41
2023-02-15T07:45:52.864Z,102655.31
2023-02-15T07:48:23.811Z,102648.75
2023-02-15T07:50:53.350Z,102640.97
2023-02-15T07:53:22.060Z,102655.00
2023-02-15T07:55:53.493Z,102654.09
2023-02-15T07:58:22.297Z,102579.34
2023-02-15T08:01:01.856Z,102646.56
2023-02-15T08:03:30.590Z,102642.50
2023-02-15T08:06:00.999Z,102635.72
2023-02-15T08:08:32.796Z,102598.47
2023-02-15T08:11:22.879Z,102625.50
2023-02-15T08:14:00.658Z,102585.06
2023-02-15T08:16:32.050Z,102611.81
2023-02-15T08:19:05.517Z,102606.22
2023-02-15T08:21:35.569Z,102598.69
2023-02-15T08:24:05.229Z,102601.84
2023-02-15T08:26:35.803Z,102598.50
2023-02-15T08:29:05.319Z,102598.16
2023-02-15T08:31:34.259Z,102585.28
2023-02-15T08:34:03.091Z,102585.16
2023-02-15T08:36:33.980Z,102584.00
2023-02-15T08:39:05.561Z,102560.91
2023-02-15T08:41:38.107Z,102545.59
2023-02-15T08:44:10.441Z,102543.19
2023-02-15T08:46:40.200Z,102572.75
2023-02-15T08:49:08.586Z,102566.50
2023-02-15T08:51:40.661Z,102560.16
2023-02-15T08:54:11.100Z,102562.47
2023-02-15T08:56:44.483Z,102552.94
2023-02-15T08:59:16.304Z,102559.59
2023-02-15T09:01:47.992Z,102545.22
2023-02-15T09:04:19.238Z,102555.69
2023-02-15T09:06:53.873Z,102542.81
2023-02-15T09:09:22.442Z,102552.47
2023-02-15T09:11:59.100Z,102549.38
2023-02-15T09:14:28.863Z,102544.63
2023-02-15T09:16:57.252Z,102549.13
2023-02-15T09:19:26.803Z,102540.56
2023-02-15T09:21:55.267Z,102535.09
2023-02-15T09:24:23.713Z,102535.22
2023-02-15T09:26:53.237Z,102539.13
2023-02-15T09:29:23.781Z,102533.28
2023-02-15T09:31:54.692Z,102528.44
2023-02-15T09:34:24.348Z,102527.09
2023-02-15T09:36:53.364Z,102531.56
2023-02-15T09:39:24.701Z,102533.91
2023-02-15T09:42:34.304Z,102537.25
2023-02-15T09:45:28.517Z,102536.63
2023-02-15T09:48:09.951Z,102518.94
2023-02-15T09:50:49.000Z,102510.94
2023-02-15T09:53:40.805Z,102512.94
2023-02-15T09:56:17.689Z,102505.28
2023-02-15T09:58:56.779Z,102509.28
2023-02-15T10:01:35.974Z,102504.66
2023-02-15T10:04:23.175Z,102505.38
2023-02-15T10:07:03.846Z,102515.88
2023-02-15T10:09:46.920Z,102509.88
2023-02-15T10:12:49.150Z,102492.41
2023-02-15T10:15:26.323Z,102514.50
2023-02-15T10:18:09.478Z,102500.56
2023-02-15T10:20:49.510Z,102498.00
2023-02-15T10:23:36.581Z,102501.81
2023-02-15T10:26:15.097Z,102494.56
2023-02-15T10:28:48.874Z,102487.75
2023-02-15T10:31:35.738Z,102489.28
2023-02-15T10:34:21.345Z,102489.00
2023-02-15T10:37:19.359Z,102483.66
2023-02-15T10:40:02.465Z,102488.31
2023-02-15T10:42:39.353Z,102488.09
2023-02-15T10:45:20.699Z,102481.19
2023-02-15T10:48:09.205Z,102471.38
2023-02-15T10:50:52.378Z,102400.47
2023-02-15T10:54:00.308Z,102459.47
2023-02-15T10:56:36.260Z,102478.53
2023-02-15T10:59:22.726Z,102467.84
2023-02-15T11:01:58.217Z,102485.31
2023-02-15T11:04:42.317Z,102468.94
2023-02-15T11:07:18.873Z,102424.41
2023-02-15T11:09:51.206Z,102477.28
2023-02-15T11:12:23.771Z,102463.03
2023-02-15T11:14:58.009Z,102456.00
2023-02-15T11:17:32.644Z,102469.50
2023-02-15T11:20:09.063Z,102455.75
2023-02-15T11:22:38.970Z,102454.47
2023-02-15T11:25:20.003Z,102449.22
2023-02-15T11:27:51.778Z,102456.69
2023-02-15T11:30:25.338Z,102426.69
2023-02-15T11:32:57.110Z,102459.91
2023-02-15T11:35:30.462Z,102454.63
2023-02-15T11:38:08.376Z,102414.34
2023-02-15T11:40:43.859Z,102453.31
2023-02-15T11:43:18.836Z,102439.28
2023-02-15T11:45:48.424Z,102432.34
2023-02-15T11:48:18.981Z,102448.38
2023-02-15T11:50:48.068Z,102441.75
2023-02-15T11:53:20.270Z,102450.78
2023-02-15T11:55:51.956Z,102448.00
2023-02-15T11:58:30.618Z,102444.72
2023-02-15T12:01:03.302Z,102434.97
2023-02-15T12:03:45.917Z,102436.88
2023-02-15T12:06:21.903Z,102429.59
2023-02-15T12:08:59.340Z,102375.94
2023-02-15T12:11:35.197Z,102412.25
2023-02-15T12:14:06.508Z,102380.91
2023-02-15T12:16:43.818Z,102414.88
2023-02-15T12:19:32.278Z,102375.25
2023-02-15T12:22:03.282Z,102392.53
2023-02-15T12:24:37.222Z,102382.94
2023-02-15T12:27:08.606Z,102366.75
2023-02-15T12:29:44.260Z,102388.56
2023-02-15T12:32:19.246Z,102386.25
2023-02-15T12:34:49.005Z,102379.34
2023-02-15T12:37:23.890Z,102368.38
2023-02-15T12:39:59.359Z,102364.34
2023-02-15T12:42:30.341Z,102305.81
2023-02-15T12:45:04.667Z,102351.69
2023-02-15T12:47:33.734Z,102356.41
2023-02-15T12:50:19.969Z,102368.66
2023-02-15T12:52:50.463Z,102361.34
2023-02-15T12:55:26.809Z,102356.75
2023-02-15T12:58:09.772Z,102349.69
2023-02-15T13:00:38.092Z,102341.66
2023-02-15T13:03:07.102Z,102350.50
2023-02-15T13:05:39.640Z,102344.03
2023-02-15T13:08:14.803Z,102335.88
2023-02-15T13:10:56.178Z,102330.56
2023-02-15T13:13:28.337Z,102340.16
2023-02-15T13:16:01.555Z,102347.84
2023-02-15T13:18:34.982Z,102339.59
2023-02-15T13:21:11.829Z,102333.28
2023-02-15T13:23:42.005Z,102322.03
2023-02-15T13:26:18.513Z,102292.31
2023-02-15T13:28:49.865Z,102317.88
2023-02-15T13:31:22.070Z,102270.63
2023-02-15T13:33:54.446Z,102308.09
2023-02-15T13:36:30.612Z,102312.94
2023-02-15T13:39:09.666Z,102301.53
2023-02-15T13:41:51.779Z,102291.81
2023-02-15T13:44:29.615Z,102297.56
2023-02-15T13:47:13.860Z,102300.09
2023-02-15T13:49:53.229Z,102293.50
2023-02-15T13:52:25.597Z,102287.47
2023-02-15T13:55:20.410Z,102298.00
2023-02-15T13:58:09.480Z,102262.34
2023-02-15T14:00:47.669Z,102286.31
2023-02-15T14:03:53.926Z,102289.91
2023-02-15T14:06:50.775Z,102267.78
2023-02-15T14:09:30.747Z,102274.81
2023-02-15T14:12:19.083Z,102261.06
2023-02-15T14:15:10.855Z,102273.63
2023-02-15T14:17:51.300Z,102274.69
2023-02-15T14:20:24.009Z,102228.31
2023-02-15T14:23:02.099Z,102260.38
2023-02-15T14:25:37.809Z,102263.41
2023-02-15T14:28:12.344Z,102268.47
2023-02-15T14:30:45.719Z,102258.00
2023-02-15T14:33:35.205Z,102221.06
2023-02-15T14:36:07.635Z,102251.44
2023-02-15T14:38:50.668Z,102235.56
2023-02-15T14:41:23.040Z,102242.56
2023-02-15T14:44:02.702Z,102246.41
2023-02-15T14:46:39.422Z,102239.56
2023-02-15T14:49:12.556Z,102233.44
2023-02-15T14:52:01.957Z,102225.59
2023-02-15T14:54:58.932Z,102237.88
2023-02-15T14:57:35.025Z,102218.59
2023-02-15T15:00:35.373Z,102228.88
2023-02-15T15:03:14.300Z,102217.06
2023-02-15T15:06:00.173Z,102199.03
2023-02-15T15:08:35.502Z,102197.31
2023-02-15T15:11:43.482Z,102218.78
2023-02-15T15:14:35.857Z,102204.28
2023-02-15T15:17:05.342Z,102208.03
2023-02-15T15:20:15.681Z,102188.16
2023-02-15T15:22:45.219Z,102187.34
2023-02-15T15:25:42.256Z,102189.16
2023-02-15T15:28:48.680Z,102194.28
2023-02-15T15:31:21.349Z,102180.44
2023-02-15T15:34:20.031Z,102185.88
2023-02-15T15:37:39.145Z,102186.78
2023-02-15T15:40:41.192Z,102178.16
2023-02-15T15:43:37.660Z,102184.81
2023-02-15T15:46:33.013Z,102169.38
2023-02-15T15:49:05.254Z,102162.66
2023-02-15T15:51:34.895Z,102169.66
2023-02-15T15:54:05.522Z,102159.16
2023-02-15T15:56:38.301Z,102159.34
2023-02-15T15:59:09.569Z,102144.38
2023-02-15T16:01:42.261Z,102159.50
2023-02-15T16:04:15.371Z,102163.16
2023-02-15T16:06:45.973Z,102144.47
2023-02-15T16:09:19.145Z,102148.44
2023-02-15T16:11:52.073Z,102160.06
2023-02-15T16:14:28.880Z,102159.34
2023-02-15T16:16:59.742Z,102158.59
2023-02-15T16:19:33.082Z,102117.13
2023-02-15T16:22:03.705Z,102134.75
2023-02-15T16:24:45.890Z,102145.47
2023-02-15T16:27:35.067Z,102146.31
2023-02-15T16:30:25.607Z,102143.09
2023-02-15T16:32:56.645Z,102136.16
2023-02-15T16:35:25.907Z,102114.03
2023-02-15T16:37:57.595Z,102134.06
2023-02-15T16:40:40.763Z,102122.38
2023-02-15T16:43:18.585Z,102090.88
2023-02-15T16:45:47.213Z,102125.56
2023-02-15T16:48:20.760Z,102129.53
2023-02-15T16:50:56.472Z,102106.22
2023-02-15T16:53:27.998Z,102114.28
2023-02-15T16:55:59.446Z,102108.34
2023-02-15T16:58:39.644Z,102106.59
2023-02-15T17:01:10.361Z,102108.44
2023-02-15T17:03:39.731Z,102090.69
2023-02-15T17:06:22.519Z,102060.31
2023-02-15T17:08:51.255Z,102085.44
2023-02-15T17:11:24.035Z,102083.75
2023-02-15T17:14:23.179Z,102085.69
2023-02-15T17:17:05.249Z,102072.22
2023-02-15T17:19:35.538Z,102085.19
2023-02-15T17:22:08.592Z,102082.88
2023-02-15T17:24:39.975Z,102077.63
2023-02-15T17:27:15.043Z,102067.44
2023-02-15T17:29:48.662Z,102073.13
2023-02-15T17:32:21.076Z,102034.59
2023-02-15T17:35:04.373Z,102074.38
2023-02-15T17:37:44.764Z,102082.59
2023-02-15T17:40:22.073Z,102060.75
2023-02-15T17:42:50.469Z,102057.31
2023-02-15T17:45:21.134Z,102066.34
2023-02-15T17:47:51.371Z,102062.97
2023-02-15T17:50:23.698Z,102063.38
2023-02-15T17:52:52.975Z,102002.38
2023-02-15T17:55:43.608Z,102061.88
2023-02-15T17:58:13.542Z,102042.38
2023-02-15T18:01:03.258Z,102027.13
2023-02-15T18:03:57.960Z,102033.75
2023-02-15T18:06:44.403Z,102030.22
2023-02-15T18:09:31.666Z,102036.16
2023-02-15T18:12:00.127Z,101991.72
2023-02-15T18:14:28.897Z,102022.22
2023-02-15T18:16:59.064Z,101943.63
2023-02-15T18:19:28.473Z,102027.63
2023-02-15T18:21:58.090Z,102026.94
2023-02-15T18:24:27.917Z,102043.19
2023-02-15T18:26:56.181Z,102032.72
2023-02-15T18:29:24.340Z,102038.19
2023-02-15T18:31:55.753Z,102013.69
2023-02-15T18:34:29.201Z,102007.69
2023-02-15T18:36:59.485Z,102034.75
2023-02-15T18:39:34.167Z,102036.59
2023-02-15T18:42:02.854Z,102005.22
2023-02-15T18:44:31.726Z,102000.09
2023-02-15T18:47:00.064Z,101997.56
2023-02-15T18:49:30.016Z,101993.84
2023-02-15T18:51:58.870Z,101999.41
2023-02-15T18:54:27.626Z,102000.84
2023-02-15T18:56:59.217Z,101995.41
2023-02-15T18:59:30.623Z,101990.28
2023-02-15T19:02:00.661Z,101985.91
2023-02-15T19:04:32.489Z,101986.84
2023-02-15T19:07:01.145Z,101984.47
2023-02-15T19:09:29.867Z,101971.53
2023-02-15T19:11:58.489Z,101973.28
2023-02-15T19:14:29.939Z,101968.75
2023-02-15T19:17:00.095Z,101960.47
2023-02-15T19:19:29.751Z,101957.44
2023-02-15T19:21:58.098Z,101959.47
2023-02-15T19:24:35.166Z,101945.66
2023-02-15T19:27:04.345Z,101946.56
2023-02-15T19:29:33.729Z,101929.78
2023-02-15T19:32:02.460Z,101931.38
2023-02-15T19:34:32.418Z,101925.75
2023-02-15T19:37:00.759Z,101934.56
2023-02-15T19:39:33.294Z,101923.72
2023-02-15T19:42:01.816Z,101914.84
2023-02-15T19:44:29.954Z,101907.53
2023-02-15T19:47:01.333Z,101901.63
2023-02-15T19:49:30.096Z,101907.78
2023-02-15T19:52:01.262Z,101888.53
2023-02-15T19:54:32.534Z,101890.53
2023-02-15T19:57:01.543Z,101891.97
2023-02-15T19:59:33.038Z,101884.66
2023-02-15T20:02:02.066Z,101891.97
2023-02-15T20:04:30.613Z,101894.00
2023-02-15T20:07:03.468Z,101879.97
2023-02-15T20:09:34.010Z,101888.44
2023-02-15T20:12:02.632Z,101889.94
2023-02-15T20:14:31.532Z,101890.13
2023-02-15T20:16:59.724Z,101886.75
2023-02-15T20:19:30.873Z,101881.63
2023-02-15T20:22:02.996Z,101883.09
2023-02-15T20:24:32.778Z,101871.03
2023-02-15T20:27:01.284Z,101870.97
2023-02-15T20:29:29.733Z,101878.13
2023-02-15T20:32:01.765Z,101862.03
2023-02-15T20:34:31.098Z,101866.06
2023-02-15T20:37:00.901Z,101841.50
2023-02-15T20:39:32.457Z,101856.06
2023-02-15T20:42:01.069Z,101844.44
2023-02-15T20:44:30.436Z,101862.13
2023-02-15T20:47:03.787Z,101867.06
2023-02-15T20:49:35.464Z,101846.81
2023-02-15T20:52:18.929Z,101857.06
2023-02-15T20:54:47.558Z,101849.53
2023-02-15T20:57:17.482Z,101856.94
2023-02-15T20:59:46.559Z,101771.63
2023-02-15T21:02:21.028Z,101848.63
2023-02-15T21:04:50.019Z,101851.28
2023-02-15T21:07:21.783Z,101842.50
2023-02-15T21:09:52.712Z,101830.22
2023-02-15T21:12:22.769Z,101836.28
2023-02-15T21:14:51.182Z,101839.56
2023-02-15T21:17:20.551Z,101838.16
2023-02-15T21:19:49.423Z,101829.88
2023-02-15T21:22:21.824Z,101848.91
2023-02-15T21:24:55.274Z,101822.84
2023-02-15T21:27:24.003Z,101835.19
2023-02-15T21:29:52.462Z,101828.19
2023-02-15T21:32:22.262Z,101731.06
2023-02-15T21:34:51.028Z,101810.22
2023-02-15T21:37:30.926Z,101745.97
2023-02-15T21:39:59.576Z,101806.28
2023-02-15T21:42:46.740Z,101786.72
2023-02-15T21:45:34.231Z,101800.97
2023-02-15T21:48:03.006Z,101789.66
2023-02-15T21:50:48.937Z,101686.50
2023-02-15T21:53:23.846Z,101752.41
2023-02-15T21:55:54.144Z,101695.28
2023-02-15T21:58:24.523Z,101738.44
2023-02-15T22:00:55.586Z,101756.28
2023-02-15T22:03:24.392Z,101749.59
2023-02-15T22:05:53.441Z,101766.63
2023-02-15T22:08:24.347Z,101770.13
2023-02-15T22:10:54.567Z,101769.25
2023-02-15T22:13:28.526Z,101774.13
2023-02-15T22:15:57.774Z,101757.16
2023-02-15T22:18:28.912Z,101743.13
2023-02-15T22:20:58.344Z,101782.13
2023-02-15T22:23:27.997Z,101773.97
2023-02-15T22:25:58.540Z,101768.09
2023-02-15T22:28:34.264Z,101759.63
2023-02-15T22:31:03.819Z,101764.88
2023-02-15T22:33:35.694Z,101741.47
2023-02-15T22:36:04.261Z,101724.06
2023-02-15T22:38:34.406Z,101742.00
2023-02-15T22:41:06.354Z,101751.78
2023-02-15T22:43:40.828Z,101737.22
2023-02-15T22:46:14.498Z,101741.63
2023-02-15T22:48:44.167Z,101721.00
2023-02-15T22:51:14.917Z,101735.28
2023-02-15T22:53:45.056Z,101736.00
2023-02-15T22:56:20.056Z,101708.69
2023-02-15T22:58:50.597Z,101725.41
2023-02-15T23:01:26.146Z,101717.81
2023-02-15T23:03:55.126Z,101721.28
2023-02-15T23:06:23.467Z,101722.97
2023-02-15T23:08:53.616Z,101723.97
2023-02-15T23:11:22.368Z,101710.81
2023-02-15T23:13:50.977Z,101640.03
2023-02-15T23:16:20.686Z,101706.66
2023-02-15T23:18:50.528Z,101709.25
2023-02-15T23:21:22.576Z,101694.53
2023-02-15T23:23:54.651Z,101691.19
2023-02-15T23:26:24.565Z,101688.50
2023-02-15T23:28:53.889Z,101675.84
2023-02-15T23:31:25.655Z,101688.38
2023-02-15T23:33:54.843Z,101700.63
2023-02-15T23:36:32.066Z,101681.16
2023-02-15T23:39:26.255Z,101670.75
2023-02-15T23:41:54.800Z,101679.00
2023-02-15T23:44:23.930Z,101684.13
2023-02-15T23:46:52.739Z,101689.25
2023-02-15T23:49:21.574Z,101684.25
2023-02-15T23:51:51.446Z,101688.50
2023-02-15T23:54:23.838Z,101690.03
2023-02-15T23:56:54.914Z,101663.88
2023-02-15T23:59:25.980Z,101615.53
